createdAt,value
2023-05-25T00:01:03.623Z,4.00
2023-05-25T00:03:32.020Z,4.40
2023-05-25T00:06:01.748Z,3.55
2023-05-25T00:08:29.592Z,3.85
2023-05-25T00:10:56.836Z,3.58
2023-05-25T00:13:23.628Z,4.25
2023-05-25T00:15:50.716Z,3.75
2023-05-25T00:18:18.745Z,3.63
2023-05-25T00:20:47.549Z,3.72
2023-05-25T00:23:14.987Z,4.18
2023-05-25T00:25:41.956Z,4.05
2023-05-25T00:28:08.890Z,3.85
2023-05-25T00:30:35.705Z,4.28
2023-05-25T00:33:03.231Z,4.35
2023-05-25T00:35:30.335Z,3.65
2023-05-25T00:37:57.151Z,3.75
2023-05-25T00:40:24.049Z,4.00
2023-05-25T00:42:52.373Z,4.30
2023-05-25T00:45:19.191Z,4.32
2023-05-25T00:47:46.929Z,4.18
2023-05-25T00:50:17.337Z,3.88
2023-05-25T00:52:44.208Z,3.70
2023-05-25T00:55:16.210Z,3.70
2023-05-25T00:57:46.133Z,4.10
2023-05-25T01:00:14.696Z,3.88
2023-05-25T01:02:43.983Z,4.07
2023-05-25T01:05:12.519Z,3.53
2023-05-25T01:07:42.339Z,3.50
2023-05-25T01:10:10.771Z,3.67
2023-05-25T01:12:40.744Z,3.70
2023-05-25T01:15:09.291Z,3.47
2023-05-25T01:17:39.385Z,4.88
2023-05-25T01:20:11.831Z,3.60
2023-05-25T01:22:49.869Z,3.70
2023-05-25T01:25:25.408Z,3.38
2023-05-25T01:27:58.171Z,3.90
2023-05-25T01:30:27.312Z,3.60
2023-05-25T01:32:55.489Z,3.40
2023-05-25T01:35:24.774Z,3.85
2023-05-25T01:37:52.378Z,4.10
2023-05-25T01:40:19.171Z,4.00
2023-05-25T01:42:46.096Z,4.22
2023-05-25T01:45:14.635Z,3.70
2023-05-25T01:47:45.259Z,3.78
2023-05-25T01:50:22.592Z,4.20
2023-05-25T01:52:57.550Z,3.67
2023-05-25T01:55:27.647Z,4.05
2023-05-25T01:57:58.054Z,3.65
2023-05-25T02:04:28.078Z,3.70
2023-05-25T02:06:56.047Z,4.30
2023-05-25T02:09:22.905Z,3.70
2023-05-25T02:11:49.717Z,4.13
2023-05-25T02:14:17.119Z,4.57
2023-05-25T02:16:46.177Z,4.30
2023-05-25T02:19:15.104Z,4.40
2023-05-25T02:21:42.725Z,5.13
2023-05-25T02:24:10.337Z,4.28
2023-05-25T02:26:38.173Z,4.28
2023-05-25T02:29:06.231Z,4.28
2023-05-25T02:31:33.492Z,4.38
2023-05-25T02:34:00.644Z,4.10
2023-05-25T02:36:28.488Z,4.20
2023-05-25T02:38:55.319Z,4.25
2023-05-25T02:41:24.299Z,4.00
2023-05-25T02:43:51.476Z,4.10
2023-05-25T02:46:18.525Z,4.43
2023-05-25T02:48:45.493Z,4.25
2023-05-25T02:51:12.338Z,4.30
2023-05-25T02:53:39.282Z,4.28
2023-05-25T02:56:06.524Z,4.00
2023-05-25T02:58:33.378Z,4.25
2023-05-25T03:01:00.412Z,4.60
2023-05-25T03:03:28.319Z,4.05
2023-05-25T03:05:57.238Z,4.85
2023-05-25T03:08:24.073Z,4.50
2023-05-25T03:10:51.166Z,4.65
2023-05-25T03:13:17.923Z,4.43
2023-05-25T03:15:44.971Z,4.50
2023-05-25T03:18:12.089Z,3.75
2023-05-25T03:20:38.966Z,4.10
2023-05-25T03:23:05.828Z,4.03
2023-05-25T03:25:32.637Z,5.07
2023-05-25T03:27:59.550Z,4.30
2023-05-25T03:30:26.336Z,4.93
2023-05-25T03:32:53.205Z,4.38
2023-05-25T03:35:20.248Z,4.40
2023-05-25T03:37:47.044Z,4.45
2023-05-25T03:40:14.202Z,4.22
2023-05-25T03:42:41.179Z,4.78
2023-05-25T03:45:09.467Z,4.65
2023-05-25T03:47:38.997Z,4.53
2023-05-25T03:50:07.198Z,4.90
2023-05-25T03:52:34.275Z,4.93
2023-05-25T03:55:01.982Z,4.57
2023-05-25T03:57:28.908Z,4.20
2023-05-25T03:59:55.970Z,4.60
2023-05-25T04:02:22.990Z,4.28
2023-05-25T04:04:52.118Z,4.30
2023-05-25T04:07:20.178Z,4.45
2023-05-25T04:09:46.956Z,5.20
2023-05-25T04:12:13.751Z,4.50
2023-05-25T04:14:42.536Z,4.30
2023-05-25T04:17:09.422Z,4.90
2023-05-25T04:19:36.321Z,4.88
2023-05-25T04:22:03.213Z,4.32
2023-05-25T04:24:30.101Z,4.50
2023-05-25T04:26:56.849Z,4.72
2023-05-25T04:29:23.703Z,5.20
2023-05-25T04:31:51.692Z,4.53
2023-05-25T04:34:18.478Z,4.97
2023-05-25T04:36:45.279Z,5.20
2023-05-25T04:39:12.095Z,4.93
2023-05-25T04:41:39.447Z,4.93
2023-05-25T04:44:09.815Z,5.80
2023-05-25T04:46:37.744Z,5.47
2023-05-25T04:49:05.857Z,5.55
2023-05-25T04:51:32.719Z,5.68
2023-05-25T04:53:59.997Z,5.22
2023-05-25T04:56:26.968Z,5.20
2023-05-25T04:58:53.959Z,4.82
2023-05-25T05:01:20.819Z,5.57
2023-05-25T05:03:47.790Z,5.82
2023-05-25T05:06:14.719Z,5.60
2023-05-25T05:08:41.829Z,5.13
2023-05-25T05:11:08.633Z,7.25
2023-05-25T05:13:35.520Z,4.45
2023-05-25T05:16:02.386Z,5.05
2023-05-25T05:18:29.297Z,4.45
2023-05-25T05:20:56.178Z,4.03
2023-05-25T05:23:22.967Z,4.47
2023-05-25T05:25:49.703Z,4.07
2023-05-25T05:28:16.552Z,4.13
2023-05-25T05:30:46.599Z,3.95
2023-05-25T05:33:14.478Z,3.90
2023-05-25T05:35:41.441Z,4.03
2023-05-25T05:38:08.313Z,4.13
2023-05-25T05:40:35.220Z,3.80
2023-05-25T05:43:02.044Z,3.90
2023-05-25T05:45:28.840Z,4.07
2023-05-25T05:47:55.948Z,4.43
2023-05-25T05:50:23.049Z,3.90
2023-05-25T05:52:49.846Z,3.55
2023-05-25T05:55:17.024Z,3.90
2023-05-25T05:57:43.827Z,3.70
2023-05-25T06:00:11.306Z,3.40
2023-05-25T06:02:40.068Z,3.65
2023-05-25T06:05:09.021Z,3.45
2023-05-25T06:07:36.672Z,4.10
2023-05-25T06:10:03.546Z,4.00
2023-05-25T06:12:30.347Z,4.10
2023-05-25T06:14:57.142Z,3.97
2023-05-25T06:17:24.361Z,3.60
2023-05-25T06:19:51.222Z,4.13
2023-05-25T06:22:18.065Z,4.45
2023-05-25T06:24:44.837Z,3.50
2023-05-25T06:27:12.921Z,3.67
2023-05-25T06:29:39.724Z,3.80
2023-05-25T06:32:06.798Z,3.92
2023-05-25T06:34:35.413Z,3.53
2023-05-25T06:37:03.476Z,4.07
2023-05-25T06:39:30.223Z,4.07
2023-05-25T06:41:57.124Z,3.80
2023-05-25T06:44:23.887Z,3.97
2023-05-25T06:46:50.937Z,4.07
2023-05-25T06:49:17.742Z,4.10
2023-05-25T06:51:44.715Z,3.67
2023-05-25T06:54:14.035Z,4.18
2023-05-25T06:56:40.913Z,4.60
2023-05-25T06:59:07.782Z,4.32
2023-05-25T07:01:34.593Z,5.28
2023-05-25T07:04:01.393Z,4.47
2023-05-25T07:06:28.332Z,4.70
2023-05-25T07:08:55.894Z,4.60
2023-05-25T07:11:23.444Z,4.57
2023-05-25T07:13:50.261Z,4.68
2023-05-25T07:16:17.099Z,4.25
2023-05-25T07:18:44.025Z,4.25
2023-05-25T07:21:11.488Z,4.60
2023-05-25T07:23:41.143Z,3.95
2023-05-25T07:26:08.299Z,4.28
2023-05-25T07:28:35.095Z,4.28
2023-05-25T07:31:01.990Z,4.50
2023-05-25T07:33:28.848Z,3.92
2023-05-25T07:35:55.692Z,4.70
2023-05-25T07:38:22.464Z,4.40
2023-05-25T07:40:50.114Z,4.28
2023-05-25T07:43:16.896Z,4.07
2023-05-25T07:45:44.021Z,4.38
2023-05-25T07:48:11.100Z,4.43
2023-05-25T07:50:37.992Z,4.25
2023-05-25T07:53:04.815Z,4.00
2023-05-25T07:55:31.702Z,4.03
2023-05-25T07:57:58.537Z,4.80
2023-05-25T08:00:25.371Z,4.25
2023-05-25T08:02:52.260Z,4.28
2023-05-25T08:05:19.166Z,3.95
2023-05-25T08:07:46.791Z,3.70
2023-05-25T08:10:13.687Z,4.40
2023-05-25T08:12:48.784Z,3.88
2023-05-25T08:15:17.223Z,3.88
2023-05-25T08:17:44.461Z,4.28
2023-05-25T08:20:12.065Z,3.72
2023-05-25T08:22:38.827Z,4.00
2023-05-25T08:25:06.966Z,3.70
2023-05-25T08:27:35.665Z,4.13
2023-05-25T08:30:05.987Z,4.00
2023-05-25T08:32:32.889Z,4.63
2023-05-25T08:34:59.812Z,4.35
2023-05-25T08:37:26.623Z,4.30
2023-05-25T08:39:53.357Z,5.00
2023-05-25T08:42:20.198Z,4.40
2023-05-25T08:44:46.998Z,4.72
2023-05-25T08:47:17.112Z,4.82
2023-05-25T08:49:45.659Z,5.28
2023-05-25T08:52:15.103Z,5.13
2023-05-25T08:54:46.026Z,4.80
2023-05-25T08:57:50.321Z,5.55
2023-05-25T09:00:21.924Z,6.05
2023-05-25T09:03:01.402Z,5.95
2023-05-25T09:05:28.437Z,5.60
2023-05-25T09:07:56.562Z,5.18
2023-05-25T09:10:24.774Z,4.93
2023-05-25T09:12:52.659Z,5.38
2023-05-25T09:15:19.540Z,5.45
2023-05-25T09:17:46.382Z,5.10
2023-05-25T09:20:14.248Z,5.75
2023-05-25T09:22:42.350Z,5.70
2023-05-25T09:25:11.015Z,5.20
2023-05-25T09:27:38.299Z,6.15
2023-05-25T09:30:06.053Z,5.47
2023-05-25T09:32:32.918Z,5.20
2023-05-25T09:35:18.101Z,5.68
2023-05-25T09:40:12.830Z,5.40
2023-05-25T09:42:40.662Z,6.20
2023-05-25T09:45:07.709Z,6.70
2023-05-25T09:47:36.877Z,6.03
2023-05-25T09:50:04.264Z,6.65
2023-05-25T09:52:31.657Z,5.78
2023-05-25T09:54:58.496Z,6.18
2023-05-25T09:57:27.288Z,6.47
2023-05-25T09:59:54.262Z,6.70
2023-05-25T10:02:21.328Z,6.32
2023-05-25T10:04:48.633Z,5.97
2023-05-25T10:07:16.350Z,6.43
2023-05-25T10:09:46.150Z,6.00
2023-05-25T10:12:17.814Z,6.18
2023-05-25T10:14:47.085Z,6.25
2023-05-25T10:17:17.100Z,6.18
2023-05-25T10:19:57.666Z,6.00
2023-05-25T10:22:35.834Z,5.85
2023-05-25T10:25:13.493Z,6.05
2023-05-25T10:27:59.811Z,6.75
2023-05-25T10:30:30.170Z,6.32
2023-05-25T10:32:57.455Z,5.50
2023-05-25T10:35:24.785Z,5.75
2023-05-25T10:37:52.651Z,6.30
2023-05-25T10:40:23.015Z,6.10
2023-05-25T10:42:52.017Z,5.80
2023-05-25T10:45:19.195Z,6.25
2023-05-25T10:47:51.316Z,6.03
2023-05-25T10:50:24.694Z,6.43
2023-05-25T10:53:13.729Z,6.20
2023-05-25T10:56:02.444Z,5.78
2023-05-25T10:58:30.627Z,5.57
2023-05-25T11:01:17.751Z,6.22
2023-05-25T11:03:47.344Z,6.15
2023-05-25T11:06:15.908Z,5.63
2023-05-25T11:08:51.256Z,5.50
2023-05-25T11:11:18.138Z,5.82
2023-05-25T11:13:46.607Z,5.28
2023-05-25T11:16:30.795Z,5.65
2023-05-25T11:19:01.538Z,6.00
2023-05-25T11:21:28.320Z,6.03
2023-05-25T11:23:55.996Z,5.50
2023-05-25T11:26:28.199Z,5.85
2023-05-25T11:28:56.069Z,5.82
2023-05-25T11:31:37.134Z,5.35
2023-05-25T11:34:06.019Z,5.40
2023-05-25T11:36:35.967Z,5.80
2023-05-25T11:39:11.584Z,5.93
2023-05-25T11:41:49.845Z,5.63
2023-05-25T11:44:29.421Z,6.63
2023-05-25T11:46:57.866Z,5.93
2023-05-25T11:49:28.310Z,5.22
2023-05-25T11:51:56.986Z,5.30
2023-05-25T11:54:24.680Z,5.10
2023-05-25T11:56:51.542Z,5.47
2023-05-25T11:59:18.581Z,5.30
2023-05-25T12:01:56.186Z,5.65
2023-05-25T12:04:24.377Z,5.90
2023-05-25T12:06:51.480Z,5.80
2023-05-25T12:09:22.317Z,5.63
2023-05-25T12:11:49.542Z,5.70
2023-05-25T12:14:16.386Z,4.97
2023-05-25T12:16:43.881Z,5.35
2023-05-25T12:19:12.065Z,5.90
2023-05-25T12:21:41.035Z,5.35
2023-05-25T12:24:09.190Z,4.80
2023-05-25T12:26:47.549Z,5.53
2023-05-25T12:29:14.460Z,4.85
2023-05-25T12:31:41.833Z,5.43
2023-05-25T12:34:13.791Z,5.38
2023-05-25T12:36:54.785Z,5.70
2023-05-25T12:39:30.679Z,5.30
2023-05-25T12:42:03.869Z,4.97
2023-05-25T12:44:33.873Z,5.10
2023-05-25T12:47:17.474Z,4.93
2023-05-25T12:49:46.663Z,5.35
2023-05-25T12:52:43.127Z,4.53
2023-05-25T12:55:27.281Z,4.45
2023-05-25T12:57:56.049Z,5.05
2023-05-25T13:00:24.838Z,5.45
2023-05-25T13:02:52.462Z,5.00
2023-05-25T13:05:24.633Z,4.72
2023-05-25T13:07:52.446Z,4.95
2023-05-25T13:10:19.542Z,4.75
2023-05-25T13:12:47.710Z,4.63
2023-05-25T13:15:17.625Z,4.90
2023-05-25T13:17:45.347Z,5.03
2023-05-25T13:20:14.373Z,4.80
2023-05-25T13:22:42.263Z,4.70
2023-05-25T13:25:10.245Z,4.70
2023-05-25T13:27:38.147Z,4.80
2023-05-25T13:30:08.651Z,4.93
2023-05-25T13:32:35.578Z,4.45
2023-05-25T13:35:04.791Z,4.78
2023-05-25T13:37:33.100Z,4.40
2023-05-25T13:40:01.161Z,4.65
2023-05-25T13:42:27.962Z,5.00
2023-05-25T13:44:54.906Z,4.45
2023-05-25T13:47:21.701Z,4.57
2023-05-25T13:49:48.574Z,4.78
2023-05-25T13:52:15.307Z,4.45
2023-05-25T13:54:42.201Z,4.88
2023-05-25T13:57:08.978Z,4.70
2023-05-25T13:59:35.788Z,4.55
2023-05-25T14:02:02.644Z,5.07
2023-05-25T14:04:29.457Z,4.13
2023-05-25T14:06:57.199Z,4.68
2023-05-25T14:09:24.033Z,5.55
2023-05-25T14:11:53.536Z,4.50
2023-05-25T14:14:30.636Z,4.63
2023-05-25T14:16:58.614Z,4.60
2023-05-25T14:19:25.455Z,4.30
2023-05-25T14:22:11.069Z,4.35
2023-05-25T14:24:39.115Z,4.65
2023-05-25T14:27:07.393Z,4.22
2023-05-25T14:29:34.412Z,4.57
2023-05-25T14:32:01.717Z,4.82
2023-05-25T14:34:28.927Z,5.00
2023-05-25T14:36:56.074Z,4.90
2023-05-25T14:39:22.989Z,4.60
2023-05-25T14:41:49.741Z,5.07
2023-05-25T14:44:16.762Z,4.63
2023-05-25T14:46:43.698Z,4.30
2023-05-25T14:49:10.603Z,4.70
2023-05-25T14:51:38.164Z,4.57
2023-05-25T14:54:07.326Z,4.82
2023-05-25T14:56:34.846Z,4.85
2023-05-25T14:59:01.678Z,4.30
2023-05-25T15:01:29.600Z,4.57
2023-05-25T15:03:57.114Z,4.05
2023-05-25T15:06:24.278Z,4.20
2023-05-25T15:08:51.264Z,4.93
2023-05-25T15:11:18.487Z,4.70
2023-05-25T15:13:45.545Z,4.50
2023-05-25T15:16:17.019Z,4.65
2023-05-25T15:18:44.857Z,4.60
2023-05-25T15:21:11.698Z,4.78
2023-05-25T15:23:38.451Z,4.40
2023-05-25T15:26:07.781Z,4.45
2023-05-25T15:28:34.852Z,5.45
2023-05-25T15:31:03.295Z,4.55
2023-05-25T15:33:49.539Z,4.40
2023-05-25T15:36:19.884Z,4.32
2023-05-25T15:38:49.595Z,4.57
2023-05-25T15:41:17.666Z,4.00
2023-05-25T15:43:54.630Z,4.60
2023-05-25T15:46:21.724Z,4.47
2023-05-25T15:48:48.520Z,4.13
2023-05-25T15:51:15.419Z,4.50
2023-05-25T15:53:42.221Z,4.28
2023-05-25T15:56:08.995Z,4.97
2023-05-25T15:58:35.788Z,4.30
2023-05-25T16:01:02.814Z,4.63
2023-05-25T16:03:29.965Z,4.25
2023-05-25T16:05:57.077Z,4.30
2023-05-25T16:08:24.109Z,4.68
2023-05-25T16:10:50.996Z,4.85
2023-05-25T16:13:17.788Z,4.85
2023-05-25T16:15:44.997Z,4.82
2023-05-25T16:18:11.993Z,4.80
2023-05-25T16:20:38.868Z,4.95
2023-05-25T16:23:06.542Z,5.95
2023-05-25T16:25:33.332Z,4.60
2023-05-25T16:28:00.115Z,4.47
2023-05-25T16:30:26.871Z,4.68
2023-05-25T16:32:53.670Z,4.80
2023-05-25T16:35:20.869Z,5.40
2023-05-25T16:37:47.608Z,4.95
2023-05-25T16:40:14.508Z,4.60
2023-05-25T16:42:41.245Z,4.60
2023-05-25T16:45:08.527Z,4.97
2023-05-25T16:47:35.439Z,5.43
2023-05-25T16:50:02.203Z,5.03
2023-05-25T16:52:29.075Z,4.90
2023-05-25T16:54:56.501Z,4.82
2023-05-25T16:57:23.292Z,4.88
2023-05-25T16:59:51.755Z,5.22
2023-05-25T17:02:20.307Z,5.13
2023-05-25T17:04:47.087Z,4.57
2023-05-25T17:07:13.837Z,5.18
2023-05-25T17:09:40.985Z,5.00
2023-05-25T17:12:08.225Z,4.78
2023-05-25T17:14:35.018Z,5.35
2023-05-25T17:17:01.825Z,5.22
2023-05-25T17:19:28.658Z,4.95
2023-05-25T17:21:55.831Z,4.75
2023-05-25T17:24:22.540Z,5.10
2023-05-25T17:26:50.298Z,4.93
2023-05-25T17:29:17.184Z,5.22
2023-05-25T17:31:45.647Z,5.13
2023-05-25T17:34:13.774Z,4.60
2023-05-25T17:36:40.590Z,4.72
2023-05-25T17:39:07.347Z,4.60
2023-05-25T17:41:34.162Z,4.57
2023-05-25T17:44:01.023Z,4.90
2023-05-25T17:46:28.202Z,5.05
2023-05-25T17:48:55.129Z,5.30
2023-05-25T17:51:21.975Z,4.65
2023-05-25T17:53:48.802Z,5.00
2023-05-25T17:56:15.961Z,5.30
2023-05-25T17:58:47.907Z,4.90
2023-05-25T18:01:15.907Z,5.15
2023-05-25T18:03:43.113Z,4.80
2023-05-25T18:06:10.293Z,4.72
2023-05-25T18:08:37.078Z,4.85
2023-05-25T18:11:03.932Z,5.05
2023-05-25T18:13:31.231Z,4.88
2023-05-25T18:15:58.043Z,4.90
2023-05-25T18:18:25.037Z,4.95
2023-05-25T18:20:51.883Z,5.07
2023-05-25T18:23:18.685Z,5.13
2023-05-25T18:25:46.143Z,5.57
2023-05-25T18:28:15.288Z,5.22
2023-05-25T18:30:45.620Z,6.18
2023-05-25T18:33:12.857Z,6.07
2023-05-25T18:35:39.817Z,6.35
2023-05-25T18:38:09.403Z,4.85
2023-05-25T18:40:36.227Z,5.32
2023-05-25T18:43:03.084Z,5.40
2023-05-25T18:45:29.888Z,5.43
2023-05-25T18:47:56.681Z,5.97
2023-05-25T18:50:23.556Z,5.65
2023-05-25T18:52:51.584Z,5.53
2023-05-25T18:55:19.249Z,5.15
2023-05-25T18:57:46.854Z,4.95
2023-05-25T19:00:14.544Z,5.78
2023-05-25T19:02:41.557Z,6.15
2023-05-25T19:05:11.766Z,5.45
2023-05-25T19:07:51.111Z,4.97
2023-05-25T19:10:25.353Z,5.28
2023-05-25T19:12:52.201Z,5.43
2023-05-25T19:15:19.080Z,5.80
2023-05-25T19:17:46.841Z,5.30
2023-05-25T19:20:13.968Z,5.50
2023-05-25T19:22:41.955Z,5.32
2023-05-25T19:25:08.944Z,5.50
2023-05-25T19:27:35.757Z,6.03
2023-05-25T19:30:02.535Z,5.70
2023-05-25T19:32:29.341Z,5.10
2023-05-25T19:34:56.505Z,5.55
2023-05-25T19:37:23.402Z,5.45
2023-05-25T19:39:50.271Z,5.50
2023-05-25T19:42:17.120Z,5.32
2023-05-25T19:44:45.430Z,5.50
2023-05-25T19:47:12.451Z,5.93
2023-05-25T19:49:39.331Z,5.57
2023-05-25T19:52:06.213Z,6.20
2023-05-25T19:54:33.058Z,6.10
2023-05-25T19:57:00.232Z,5.63
2023-05-25T19:59:30.395Z,5.68
2023-05-25T20:01:57.237Z,5.68
2023-05-25T20:04:24.198Z,5.90
2023-05-25T20:06:51.900Z,6.28
2023-05-25T20:09:19.032Z,6.03
2023-05-25T20:11:45.910Z,5.88
2023-05-25T20:14:12.756Z,5.68
2023-05-25T20:16:40.105Z,5.35
2023-05-25T20:19:07.840Z,5.85
2023-05-25T20:21:35.774Z,5.93
2023-05-25T20:24:02.781Z,6.28
2023-05-25T20:26:29.678Z,6.20
2023-05-25T20:28:57.394Z,5.60
2023-05-25T20:31:27.196Z,6.00
2023-05-25T20:33:53.981Z,6.30
2023-05-25T20:36:21.135Z,5.82
2023-05-25T20:38:48.017Z,6.22
2023-05-25T20:41:14.914Z,5.80
2023-05-25T20:43:41.924Z,6.13
2023-05-25T20:46:09.695Z,5.65
2023-05-25T20:48:39.430Z,6.40
2023-05-25T20:51:06.262Z,6.40
2023-05-25T20:53:33.059Z,7.05
2023-05-25T20:56:02.224Z,6.10
2023-05-25T20:58:28.961Z,6.43
2023-05-25T21:00:55.709Z,6.15
2023-05-25T21:03:22.542Z,6.40
2023-05-25T21:05:49.346Z,6.63
2023-05-25T21:08:16.207Z,6.13
2023-05-25T21:10:43.055Z,6.50
2023-05-25T21:13:11.311Z,6.30
2023-05-25T21:15:38.120Z,5.85
2023-05-25T21:18:07.054Z,6.03
2023-05-25T21:20:33.980Z,6.47
2023-05-25T21:23:01.347Z,6.07
2023-05-25T21:25:29.313Z,6.30
2023-05-25T21:27:57.195Z,5.75
2023-05-25T21:30:24.607Z,5.78
2023-05-25T21:32:51.587Z,5.88
2023-05-25T21:35:18.528Z,6.60
2023-05-25T21:37:45.876Z,6.15
2023-05-25T21:40:13.056Z,6.30
2023-05-25T21:42:39.818Z,6.18
2023-05-25T21:45:07.116Z,5.88
2023-05-25T21:47:33.993Z,5.47
2023-05-25T21:50:00.892Z,6.38
2023-05-25T21:52:27.673Z,6.15
2023-05-25T21:54:54.482Z,6.82
2023-05-25T21:57:21.227Z,6.93
2023-05-25T21:59:47.997Z,5.93
2023-05-25T22:02:14.806Z,6.13
2023-05-25T22:04:41.625Z,6.35
2023-05-25T22:07:08.477Z,6.45
2023-05-25T22:09:35.285Z,6.20
2023-05-25T22:12:02.483Z,6.40
2023-05-25T22:14:29.291Z,6.47
2023-05-25T22:16:56.156Z,6.47
2023-05-25T22:19:23.095Z,6.68
2023-05-25T22:21:49.875Z,6.10
2023-05-25T22:24:16.658Z,6.55
2023-05-25T22:26:43.455Z,6.15
2023-05-25T22:29:11.983Z,5.88
2023-05-25T22:31:38.883Z,6.30
2023-05-25T22:34:05.855Z,6.45
2023-05-25T22:36:32.770Z,6.18
2023-05-25T22:38:59.648Z,6.15
2023-05-25T22:41:26.695Z,6.88
2023-05-25T22:43:53.580Z,6.65
2023-05-25T22:46:21.056Z,5.97
2023-05-25T22:48:47.857Z,6.15
2023-05-25T22:51:14.656Z,6.38
2023-05-25T22:53:41.736Z,6.43
2023-05-25T22:56:08.894Z,7.32
2023-05-25T22:58:35.768Z,6.72
2023-05-25T23:01:02.565Z,6.20
2023-05-25T23:03:30.382Z,6.43
2023-05-25T23:05:57.297Z,6.95
2023-05-25T23:08:24.054Z,6.68
2023-05-25T23:10:50.819Z,7.10
2023-05-25T23:13:19.308Z,6.78
2023-05-25T23:15:47.622Z,6.63
2023-05-25T23:18:14.484Z,6.53
2023-05-25T23:20:41.930Z,6.97
2023-05-25T23:23:08.976Z,6.63
2023-05-25T23:25:36.547Z,7.10
2023-05-25T23:28:03.399Z,6.65
2023-05-25T23:30:30.158Z,7.10
2023-05-25T23:32:57.094Z,6.85
2023-05-25T23:35:23.936Z,7.25
2023-05-25T23:37:52.128Z,7.05
2023-05-25T23:40:19.129Z,6.82
2023-05-25T23:42:46.028Z,6.80
2023-05-25T23:45:13.948Z,7.22
2023-05-25T23:47:40.881Z,7.47
2023-05-25T23:50:08.222Z,6.93
2023-05-25T23:52:35.179Z,6.88
2023-05-25T23:55:02.192Z,6.88
2023-05-25T23:57:28.966Z,7.00
2023-05-25T23:59:55.770Z,7.28
